sensor_id;sensor_type;location;lat;lon;timestamp;temperature;humidity
25951;DHT22;13748;52.240;6.002;2022-08-27T00:01:37;18.20;99.90
25951;DHT22;13748;52.240;6.002;2022-08-27T00:04:05;18.10;99.90
25951;DHT22;13748;52.240;6.002;2022-08-27T00:06:33;18.10;99.90
25951;DHT22;13748;52.240;6.002;2022-08-27T00:09:02;18.10;99.90
25951;DHT22;13748;52.240;6.002;2022-08-27T00:11:30;18.10;99.90
25951;DHT22;13748;52.240;6.002;2022-08-27T00:13:58;18.10;99.90
25951;DHT22;13748;52.240;6.002;2022-08-27T00:16:25;18.10;99.90
25951;DHT22;13748;52.240;6.002;2022-08-27T00:18:54;18.10;99.90
25951;DHT22;13748;52.240;6.002;2022-08-27T00:21:23;18.00;99.90
25951;DHT22;13748;52.240;6.002;2022-08-27T00:23:50;18.10;99.90
25951;DHT22;13748;52.240;6.002;2022-08-27T00:26:17;18.00;99.90
25951;DHT22;13748;52.240;6.002;2022-08-27T00:28:47;18.00;99.90
25951;DHT22;13748;52.240;6.002;2022-08-27T00:31:16;17.90;99.90
25951;DHT22;13748;52.240;6.002;2022-08-27T00:33:47;18.00;99.90
25951;DHT22;13748;52.240;6.002;2022-08-27T00:36:14;17.90;99.90
25951;DHT22;13748;52.240;6.002;2022-08-27T00:38:47;17.80;99.90
25951;DHT22;13748;52.240;6.002;2022-08-27T00:41:21;17.80;99.90
25951;DHT22;13748;52.240;6.002;2022-08-27T00:43:55;17.70;99.90
25951;DHT22;13748;52.240;6.002;2022-08-27T00:46:31;17.70;99.90
25951;DHT22;13748;52.240;6.002;2022-08-27T00:49:02;17.50;99.90
25951;DHT22;13748;52.240;6.002;2022-08-27T00:51:30;17.50;99.90
25951;DHT22;13748;52.240;6.002;2022-08-27T00:54:00;17.40;99.90
25951;DHT22;13748;52.240;6.002;2022-08-27T00:56:38;17.30;99.90
25951;DHT22;13748;52.240;6.002;2022-08-27T00:59:05;17.20;99.90
25951;DHT22;13748;52.240;6.002;2022-08-27T01:01:39;17.10;99.90
25951;DHT22;13748;52.240;6.002;2022-08-27T01:04:26;17.10;99.90
25951;DHT22;13748;52.240;6.002;2022-08-27T01:06:54;17.00;99.90
25951;DHT22;13748;52.240;6.002;2022-08-27T01:09:21;16.90;99.90
25951;DHT22;13748;52.240;6.002;2022-08-27T01:11:49;16.90;99.90
25951;DHT22;13748;52.240;6.002;2022-08-27T01:14:17;16.80;99.90
25951;DHT22;13748;52.240;6.002;2022-08-27T01:16:53;16.80;99.90
25951;DHT22;13748;52.240;6.002;2022-08-27T01:19:45;16.70;99.90
25951;DHT22;13748;52.240;6.002;2022-08-27T01:22:35;16.70;99.90
25951;DHT22;13748;52.240;6.002;2022-08-27T01:25:08;16.70;99.90
25951;DHT22;13748;52.240;6.002;2022-08-27T01:27:36;16.70;99.90
25951;DHT22;13748;52.240;6.002;2022-08-27T01:30:07;16.60;99.90
25951;DHT22;13748;52.240;6.002;2022-08-27T01:32:37;16.50;99.90
25951;DHT22;13748;52.240;6.002;2022-08-27T01:35:07;16.50;99.90
25951;DHT22;13748;52.240;6.002;2022-08-27T01:37:36;16.50;99.90
25951;DHT22;13748;52.240;6.002;2022-08-27T01:40:05;16.40;99.90
25951;DHT22;13748;52.240;6.002;2022-08-27T01:42:46;16.40;99.90
25951;DHT22;13748;52.240;6.002;2022-08-27T01:45:20;16.40;99.90
25951;DHT22;13748;52.240;6.002;2022-08-27T01:47:47;16.40;99.90
25951;DHT22;13748;52.240;6.002;2022-08-27T01:50:19;16.40;99.90
25951;DHT22;13748;52.240;6.002;2022-08-27T01:52:49;16.30;99.90
25951;DHT22;13748;52.240;6.002;2022-08-27T01:55:19;16.30;99.90
25951;DHT22;13748;52.240;6.002;2022-08-27T01:57:47;16.20;99.90
25951;DHT22;13748;52.240;6.002;2022-08-27T02:00:34;16.20;99.90
25951;DHT22;13748;52.240;6.002;2022-08-27T02:03:06;16.10;99.90
25951;DHT22;13748;52.240;6.002;2022-08-27T02:05:37;16.10;99.90
25951;DHT22;13748;52.240;6.002;2022-08-27T02:08:13;16.10;99.90
25951;DHT22;13748;52.240;6.002;2022-08-27T02:10:44;16.00;99.90
25951;DHT22;13748;52.240;6.002;2022-08-27T02:13:14;16.00;99.90
25951;DHT22;13748;52.240;6.002;2022-08-27T02:15:43;16.00;99.90
25951;DHT22;13748;52.240;6.002;2022-08-27T02:18:12;16.00;99.90
25951;DHT22;13748;52.240;6.002;2022-08-27T02:20:43;15.90;99.90
25951;DHT22;13748;52.240;6.002;2022-08-27T02:23:10;15.90;99.90
25951;DHT22;13748;52.240;6.002;2022-08-27T02:25:41;15.90;99.90
25951;DHT22;13748;52.240;6.002;2022-08-27T02:28:09;15.90;99.90
25951;DHT22;13748;52.240;6.002;2022-08-27T02:30:37;15.90;99.90
25951;DHT22;13748;52.240;6.002;2022-08-27T02:33:04;15.90;99.90
25951;DHT22;13748;52.240;6.002;2022-08-27T02:35:34;15.90;99.90
25951;DHT22;13748;52.240;6.002;2022-08-27T02:38:03;15.90;99.90
25951;DHT22;13748;52.240;6.002;2022-08-27T02:40:31;15.90;99.90
25951;DHT22;13748;52.240;6.002;2022-08-27T02:43:03;15.90;99.90
25951;DHT22;13748;52.240;6.002;2022-08-27T02:45:31;15.90;99.90
25951;DHT22;13748;52.240;6.002;2022-08-27T02:48:01;15.90;99.90
25951;DHT22;13748;52.240;6.002;2022-08-27T02:50:28;15.90;99.90
25951;DHT22;13748;52.240;6.002;2022-08-27T02:52:56;15.90;99.90
25951;DHT22;13748;52.240;6.002;2022-08-27T02:55:23;15.80;99.90
25951;DHT22;13748;52.240;6.002;2022-08-27T02:57:50;15.80;99.90
25951;DHT22;13748;52.240;6.002;2022-08-27T03:00:22;15.80;99.90
25951;DHT22;13748;52.240;6.002;2022-08-27T03:02:50;15.80;99.90
25951;DHT22;13748;52.240;6.002;2022-08-27T03:05:18;16.00;99.90
25951;DHT22;13748;52.240;6.002;2022-08-27T03:07:45;15.80;99.90
25951;DHT22;13748;52.240;6.002;2022-08-27T03:10:17;15.80;99.90
25951;DHT22;13748;52.240;6.002;2022-08-27T03:12:44;15.80;99.90
25951;DHT22;13748;52.240;6.002;2022-08-27T03:15:15;15.80;99.90
25951;DHT22;13748;52.240;6.002;2022-08-27T03:17:42;15.90;99.90
25951;DHT22;13748;52.240;6.002;2022-08-27T03:20:38;15.90;99.90
25951;DHT22;13748;52.240;6.002;2022-08-27T03:23:09;15.90;99.90
25951;DHT22;13748;52.240;6.002;2022-08-27T03:25:43;15.90;99.90
25951;DHT22;13748;52.240;6.002;2022-08-27T03:28:11;15.90;99.90
25951;DHT22;13748;52.240;6.002;2022-08-27T03:30:57;16.00;99.90
25951;DHT22;13748;52.240;6.002;2022-08-27T03:33:27;16.00;99.90
25951;DHT22;13748;52.240;6.002;2022-08-27T03:35:56;16.00;99.90
25951;DHT22;13748;52.240;6.002;2022-08-27T03:38:24;16.00;99.90
25951;DHT22;13748;52.240;6.002;2022-08-27T03:40:51;16.00;99.90
25951;DHT22;13748;52.240;6.002;2022-08-27T03:43:20;16.00;99.90
25951;DHT22;13748;52.240;6.002;2022-08-27T03:45:50;16.00;99.90
25951;DHT22;13748;52.240;6.002;2022-08-27T03:48:29;16.00;99.90
25951;DHT22;13748;52.240;6.002;2022-08-27T03:50:58;16.00;99.90
25951;DHT22;13748;52.240;6.002;2022-08-27T03:53:25;16.00;99.90
25951;DHT22;13748;52.240;6.002;2022-08-27T03:55:52;15.90;99.90
25951;DHT22;13748;52.240;6.002;2022-08-27T03:58:20;15.90;99.90
25951;DHT22;13748;52.240;6.002;2022-08-27T04:01:00;15.90;99.90
25951;DHT22;13748;52.240;6.002;2022-08-27T04:03:29;15.80;99.90
25951;DHT22;13748;52.240;6.002;2022-08-27T04:05:57;15.90;99.90
25951;DHT22;13748;52.240;6.002;2022-08-27T04:08:32;15.80;99.90
25951;DHT22;13748;52.240;6.002;2022-08-27T04:11:03;15.80;99.90
25951;DHT22;13748;52.240;6.002;2022-08-27T04:13:31;15.80;99.90
25951;DHT22;13748;52.240;6.002;2022-08-27T04:15:59;15.80;99.90
25951;DHT22;13748;52.240;6.002;2022-08-27T04:18:27;15.80;99.90
25951;DHT22;13748;52.240;6.002;2022-08-27T04:20:54;15.80;99.90
25951;DHT22;13748;52.240;6.002;2022-08-27T04:23:22;15.70;99.90
25951;DHT22;13748;52.240;6.002;2022-08-27T04:25:56;15.70;99.90
25951;DHT22;13748;52.240;6.002;2022-08-27T04:28:23;15.70;99.90
25951;DHT22;13748;52.240;6.002;2022-08-27T04:30:52;15.70;99.90
25951;DHT22;13748;52.240;6.002;2022-08-27T04:33:23;15.70;99.90
25951;DHT22;13748;52.240;6.002;2022-08-27T04:36:06;15.60;99.90
25951;DHT22;13748;52.240;6.002;2022-08-27T04:38:33;15.70;99.90
25951;DHT22;13748;52.240;6.002;2022-08-27T04:41:11;15.60;99.90
25951;DHT22;13748;52.240;6.002;2022-08-27T04:43:54;15.60;99.90
25951;DHT22;13748;52.240;6.002;2022-08-27T04:46:28;15.60;99.90
25951;DHT22;13748;52.240;6.002;2022-08-27T04:48:58;15.60;99.90
25951;DHT22;13748;52.240;6.002;2022-08-27T04:51:27;16.10;99.90
25951;DHT22;13748;52.240;6.002;2022-08-27T04:53:58;15.50;99.90
25951;DHT22;13748;52.240;6.002;2022-08-27T04:56:29;15.50;99.90
25951;DHT22;13748;52.240;6.002;2022-08-27T04:59:09;15.50;99.90
25951;DHT22;13748;52.240;6.002;2022-08-27T05:01:41;15.50;99.90
25951;DHT22;13748;52.240;6.002;2022-08-27T05:04:12;15.60;99.90
25951;DHT22;13748;52.240;6.002;2022-08-27T05:06:43;15.50;99.90
25951;DHT22;13748;52.240;6.002;2022-08-27T05:09:16;15.50;99.90
25951;DHT22;13748;52.240;6.002;2022-08-27T05:11:50;16.00;99.90
25951;DHT22;13748;52.240;6.002;2022-08-27T05:14:20;15.50;99.90
25951;DHT22;13748;52.240;6.002;2022-08-27T05:16:49;15.50;99.90
25951;DHT22;13748;52.240;6.002;2022-08-27T05:19:19;15.50;99.90
25951;DHT22;13748;52.240;6.002;2022-08-27T05:21:50;15.50;99.90
25951;DHT22;13748;52.240;6.002;2022-08-27T05:24:21;15.60;99.90
25951;DHT22;13748;52.240;6.002;2022-08-27T05:26:48;15.60;99.90
25951;DHT22;13748;52.240;6.002;2022-08-27T05:29:16;15.60;99.90
25951;DHT22;13748;52.240;6.002;2022-08-27T05:31:45;15.70;99.90
25951;DHT22;13748;52.240;6.002;2022-08-27T05:34:14;15.60;99.90
25951;DHT22;13748;52.240;6.002;2022-08-27T05:36:51;15.60;99.90
25951;DHT22;13748;52.240;6.002;2022-08-27T05:39:19;15.90;99.90
25951;DHT22;13748;52.240;6.002;2022-08-27T05:41:46;15.50;99.90
25951;DHT22;13748;52.240;6.002;2022-08-27T05:44:13;15.70;99.90
25951;DHT22;13748;52.240;6.002;2022-08-27T05:47:02;15.80;99.90
25951;DHT22;13748;52.240;6.002;2022-08-27T05:51:57;15.80;99.90
25951;DHT22;13748;52.240;6.002;2022-08-27T05:54:24;15.90;99.90
25951;DHT22;13748;52.240;6.002;2022-08-27T05:56:51;15.90;99.90
25951;DHT22;13748;52.240;6.002;2022-08-27T05:59:18;15.90;99.90
25951;DHT22;13748;52.240;6.002;2022-08-27T06:02:04;16.00;99.90
25951;DHT22;13748;52.240;6.002;2022-08-27T06:04:35;16.00;99.90
25951;DHT22;13748;52.240;6.002;2022-08-27T06:07:02;16.10;99.90
25951;DHT22;13748;52.240;6.002;2022-08-27T06:09:30;16.10;99.90
25951;DHT22;13748;52.240;6.002;2022-08-27T06:11:59;16.20;99.90
25951;DHT22;13748;52.240;6.002;2022-08-27T06:14:27;16.20;99.90
25951;DHT22;13748;52.240;6.002;2022-08-27T06:16:55;16.30;99.90
25951;DHT22;13748;52.240;6.002;2022-08-27T06:19:22;16.40;99.90
25951;DHT22;13748;52.240;6.002;2022-08-27T06:21:50;16.50;99.90
25951;DHT22;13748;52.240;6.002;2022-08-27T06:24:36;16.60;99.90
25951;DHT22;13748;52.240;6.002;2022-08-27T06:27:04;17.10;99.90
25951;DHT22;13748;52.240;6.002;2022-08-27T06:29:32;17.80;99.90
25951;DHT22;13748;52.240;6.002;2022-08-27T06:32:02;18.30;99.90
25951;DHT22;13748;52.240;6.002;2022-08-27T06:34:30;18.50;99.90
25951;DHT22;13748;52.240;6.002;2022-08-27T06:36:58;18.60;99.90
25951;DHT22;13748;52.240;6.002;2022-08-27T06:39:25;18.80;99.90
25951;DHT22;13748;52.240;6.002;2022-08-27T06:41:52;18.90;99.90
25951;DHT22;13748;52.240;6.002;2022-08-27T06:44:20;18.90;99.90
25951;DHT22;13748;52.240;6.002;2022-08-27T06:46:50;19.00;99.90
25951;DHT22;13748;52.240;6.002;2022-08-27T06:49:17;19.40;99.90
25951;DHT22;13748;52.240;6.002;2022-08-27T06:51:47;19.80;99.90
25951;DHT22;13748;52.240;6.002;2022-08-27T06:54:15;20.50;99.90
25951;DHT22;13748;52.240;6.002;2022-08-27T06:56:43;21.20;99.90
25951;DHT22;13748;52.240;6.002;2022-08-27T06:59:14;22.00;99.90
25951;DHT22;13748;52.240;6.002;2022-08-27T07:01:45;22.40;99.90
25951;DHT22;13748;52.240;6.002;2022-08-27T07:04:18;22.70;99.90
25951;DHT22;13748;52.240;6.002;2022-08-27T07:06:46;23.30;99.90
25951;DHT22;13748;52.240;6.002;2022-08-27T07:09:14;23.80;99.90
25951;DHT22;13748;52.240;6.002;2022-08-27T07:11:42;24.10;99.90
25951;DHT22;13748;52.240;6.002;2022-08-27T07:14:09;24.70;99.90
25951;DHT22;13748;52.240;6.002;2022-08-27T07:16:36;25.30;99.90
25951;DHT22;13748;52.240;6.002;2022-08-27T07:19:06;25.90;99.90
25951;DHT22;13748;52.240;6.002;2022-08-27T07:21:38;26.40;99.90
25951;DHT22;13748;52.240;6.002;2022-08-27T07:24:06;26.90;99.90
25951;DHT22;13748;52.240;6.002;2022-08-27T07:26:38;27.30;99.90
25951;DHT22;13748;52.240;6.002;2022-08-27T07:29:06;27.50;99.90
25951;DHT22;13748;52.240;6.002;2022-08-27T07:31:34;27.80;99.90
25951;DHT22;13748;52.240;6.002;2022-08-27T07:34:02;28.00;99.90
25951;DHT22;13748;52.240;6.002;2022-08-27T07:36:31;28.00;99.90
25951;DHT22;13748;52.240;6.002;2022-08-27T07:38:58;28.30;99.90
25951;DHT22;13748;52.240;6.002;2022-08-27T07:41:28;28.40;99.90
25951;DHT22;13748;52.240;6.002;2022-08-27T07:43:58;28.60;99.90
25951;DHT22;13748;52.240;6.002;2022-08-27T07:46:44;28.80;99.90
25951;DHT22;13748;52.240;6.002;2022-08-27T07:49:16;29.10;99.90
25951;DHT22;13748;52.240;6.002;2022-08-27T07:51:44;29.40;99.00
25951;DHT22;13748;52.240;6.002;2022-08-27T07:54:11;29.50;98.00
25951;DHT22;13748;52.240;6.002;2022-08-27T07:56:38;29.50;97.30
25951;DHT22;13748;52.240;6.002;2022-08-27T07:59:06;29.50;96.80
25951;DHT22;13748;52.240;6.002;2022-08-27T08:01:34;29.60;96.70
25951;DHT22;13748;52.240;6.002;2022-08-27T08:04:01;29.70;95.50
25951;DHT22;13748;52.240;6.002;2022-08-27T08:06:28;29.70;94.50
25951;DHT22;13748;52.240;6.002;2022-08-27T08:08:55;29.20;93.80
25951;DHT22;13748;52.240;6.002;2022-08-27T08:11:22;28.60;93.90
25951;DHT22;13748;52.240;6.002;2022-08-27T08:13:49;28.00;94.00
25951;DHT22;13748;52.240;6.002;2022-08-27T08:16:19;27.60;94.60
25951;DHT22;13748;52.240;6.002;2022-08-27T08:18:54;27.50;95.20
25951;DHT22;13748;52.240;6.002;2022-08-27T08:21:25;27.40;95.50
25951;DHT22;13748;52.240;6.002;2022-08-27T08:23:55;27.20;96.40
25951;DHT22;13748;52.240;6.002;2022-08-27T08:26:38;27.30;96.20
25951;DHT22;13748;52.240;6.002;2022-08-27T08:29:07;27.40;96.00
25951;DHT22;13748;52.240;6.002;2022-08-27T08:31:40;27.40;96.00
25951;DHT22;13748;52.240;6.002;2022-08-27T08:34:08;26.90;95.90
25951;DHT22;13748;52.240;6.002;2022-08-27T08:36:39;26.20;96.70
25951;DHT22;13748;52.240;6.002;2022-08-27T08:39:06;25.80;96.80
25951;DHT22;13748;52.240;6.002;2022-08-27T08:41:43;25.40;97.50
25951;DHT22;13748;52.240;6.002;2022-08-27T08:47:20;26.10;97.60
25951;DHT22;13748;52.240;6.002;2022-08-27T08:50:08;26.20;97.30
25951;DHT22;13748;52.240;6.002;2022-08-27T08:53:02;25.90;97.30
25951;DHT22;13748;52.240;6.002;2022-08-27T08:55:50;25.60;97.50
25951;DHT22;13748;52.240;6.002;2022-08-27T08:58:40;25.40;98.10
25951;DHT22;13748;52.240;6.002;2022-08-27T09:01:14;25.10;98.30
25951;DHT22;13748;52.240;6.002;2022-08-27T09:03:48;24.80;98.70
25951;DHT22;13748;52.240;6.002;2022-08-27T09:06:33;24.60;99.00
25951;DHT22;13748;52.240;6.002;2022-08-27T09:11:50;24.30;99.90
25951;DHT22;13748;52.240;6.002;2022-08-27T09:14:38;24.30;99.90
25951;DHT22;13748;52.240;6.002;2022-08-27T09:17:12;24.20;99.60
25951;DHT22;13748;52.240;6.002;2022-08-27T09:19:42;24.30;99.90
25951;DHT22;13748;52.240;6.002;2022-08-27T09:22:20;24.90;99.90
25951;DHT22;13748;52.240;6.002;2022-08-27T09:25:03;25.50;99.90
25951;DHT22;13748;52.240;6.002;2022-08-27T09:27:34;25.50;98.70
25951;DHT22;13748;52.240;6.002;2022-08-27T09:30:24;25.60;99.60
25951;DHT22;13748;52.240;6.002;2022-08-27T09:32:59;26.00;99.70
25951;DHT22;13748;52.240;6.002;2022-08-27T09:35:35;26.50;98.90
25951;DHT22;13748;52.240;6.002;2022-08-27T09:38:04;27.30;97.50
25951;DHT22;13748;52.240;6.002;2022-08-27T09:40:38;27.10;96.80
25951;DHT22;13748;52.240;6.002;2022-08-27T09:43:22;27.10;96.90
25951;DHT22;13748;52.240;6.002;2022-08-27T09:45:53;26.70;96.70
25951;DHT22;13748;52.240;6.002;2022-08-27T09:48:28;26.50;97.10
25951;DHT22;13748;52.240;6.002;2022-08-27T09:50:58;26.10;97.00
25951;DHT22;13748;52.240;6.002;2022-08-27T09:53:30;26.20;97.80
25951;DHT22;13748;52.240;6.002;2022-08-27T09:56:00;25.70;97.90
25951;DHT22;13748;52.240;6.002;2022-08-27T09:58:31;25.60;97.70
25951;DHT22;13748;52.240;6.002;2022-08-27T10:01:06;25.50;98.30
25951;DHT22;13748;52.240;6.002;2022-08-27T10:03:41;25.40;98.30
25951;DHT22;13748;52.240;6.002;2022-08-27T10:06:09;25.30;98.40
25951;DHT22;13748;52.240;6.002;2022-08-27T10:08:46;25.20;98.60
25951;DHT22;13748;52.240;6.002;2022-08-27T10:13:57;24.90;98.90
25951;DHT22;13748;52.240;6.002;2022-08-27T10:19:41;24.60;99.20
25951;DHT22;13748;52.240;6.002;2022-08-27T10:22:19;24.50;99.70
25951;DHT22;13748;52.240;6.002;2022-08-27T10:38:35;25.00;99.30
25951;DHT22;13748;52.240;6.002;2022-08-27T10:41:16;24.70;99.50
25951;DHT22;13748;52.240;6.002;2022-08-27T10:52:30;24.40;99.90
25951;DHT22;13748;52.240;6.002;2022-08-27T11:00:54;24.90;99.90
25951;DHT22;13748;52.240;6.002;2022-08-27T11:03:35;24.50;99.90
25951;DHT22;13748;52.240;6.002;2022-08-27T11:09:05;24.60;99.90
25951;DHT22;13748;52.240;6.002;2022-08-27T11:11:40;24.50;99.90
25951;DHT22;13748;52.240;6.002;2022-08-27T11:17:01;24.50;99.90
25951;DHT22;13748;52.240;6.002;2022-08-27T11:19:53;24.60;99.90
25951;DHT22;13748;52.240;6.002;2022-08-27T11:22:29;24.60;99.90
25951;DHT22;13748;52.240;6.002;2022-08-27T11:25:08;24.50;99.90
25951;DHT22;13748;52.240;6.002;2022-08-27T11:27:40;24.50;99.90
25951;DHT22;13748;52.240;6.002;2022-08-27T11:44:28;24.70;99.90
25951;DHT22;13748;52.240;6.002;2022-08-27T11:49:56;24.60;99.90
25951;DHT22;13748;52.240;6.002;2022-08-27T11:52:54;24.60;99.90
25951;DHT22;13748;52.240;6.002;2022-08-27T12:00:45;24.70;99.90
25951;DHT22;13748;52.240;6.002;2022-08-27T12:05:48;25.00;99.90
25951;DHT22;13748;52.240;6.002;2022-08-27T12:08:31;25.10;99.90
25951;DHT22;13748;52.240;6.002;2022-08-27T12:11:19;25.20;99.90
25951;DHT22;13748;52.240;6.002;2022-08-27T12:17:10;25.20;99.90
25951;DHT22;13748;52.240;6.002;2022-08-27T12:22:58;24.70;99.90
25951;DHT22;13748;52.240;6.002;2022-08-27T12:26:20;25.10;99.90
25951;DHT22;13748;52.240;6.002;2022-08-27T12:29:19;25.00;99.90
25951;DHT22;13748;52.240;6.002;2022-08-27T12:35:07;25.20;99.90
25951;DHT22;13748;52.240;6.002;2022-08-27T12:37:38;25.20;99.90
25951;DHT22;13748;52.240;6.002;2022-08-27T12:40:25;25.70;99.90
25951;DHT22;13748;52.240;6.002;2022-08-27T12:43:12;25.60;99.90
25951;DHT22;13748;52.240;6.002;2022-08-27T12:45:59;25.80;99.80
25951;DHT22;13748;52.240;6.002;2022-08-27T12:48:33;25.80;99.20
25951;DHT22;13748;52.240;6.002;2022-08-27T12:51:07;25.90;99.00
25951;DHT22;13748;52.240;6.002;2022-08-27T12:53:53;26.10;98.40
25951;DHT22;13748;52.240;6.002;2022-08-27T12:59:58;26.00;98.20
25951;DHT22;13748;52.240;6.002;2022-08-27T13:02:48;25.90;98.30
25951;DHT22;13748;52.240;6.002;2022-08-27T13:05:20;25.80;98.70
25951;DHT22;13748;52.240;6.002;2022-08-27T13:07:50;25.80;98.80
25951;DHT22;13748;52.240;6.002;2022-08-27T13:10:26;25.80;98.90
25951;DHT22;13748;52.240;6.002;2022-08-27T13:13:06;25.90;98.60
25951;DHT22;13748;52.240;6.002;2022-08-27T13:15:33;26.00;98.60
25951;DHT22;13748;52.240;6.002;2022-08-27T13:18:04;26.00;98.90
25951;DHT22;13748;52.240;6.002;2022-08-27T13:20:36;26.10;99.00
25951;DHT22;13748;52.240;6.002;2022-08-27T13:23:19;26.20;98.90
25951;DHT22;13748;52.240;6.002;2022-08-27T13:26:08;26.20;98.20
25951;DHT22;13748;52.240;6.002;2022-08-27T13:28:38;26.20;98.20
25951;DHT22;13748;52.240;6.002;2022-08-27T13:31:06;26.20;97.90
25951;DHT22;13748;52.240;6.002;2022-08-27T13:33:37;26.10;97.70
25951;DHT22;13748;52.240;6.002;2022-08-27T13:36:07;26.10;98.00
25951;DHT22;13748;52.240;6.002;2022-08-27T13:38:42;26.10;98.30
25951;DHT22;13748;52.240;6.002;2022-08-27T13:41:26;26.00;98.80
25951;DHT22;13748;52.240;6.002;2022-08-27T13:43:54;26.00;98.60
25951;DHT22;13748;52.240;6.002;2022-08-27T13:46:27;26.00;98.70
25951;DHT22;13748;52.240;6.002;2022-08-27T13:48:57;26.00;98.60
25951;DHT22;13748;52.240;6.002;2022-08-27T13:51:31;26.10;98.40
25951;DHT22;13748;52.240;6.002;2022-08-27T13:54:00;26.00;98.50
25951;DHT22;13748;52.240;6.002;2022-08-27T13:56:58;26.00;98.40
25951;DHT22;13748;52.240;6.002;2022-08-27T13:59:30;26.00;98.10
25951;DHT22;13748;52.240;6.002;2022-08-27T14:04:46;25.90;98.30
25951;DHT22;13748;52.240;6.002;2022-08-27T14:07:22;25.80;98.00
25951;DHT22;13748;52.240;6.002;2022-08-27T14:09:58;25.80;98.50
25951;DHT22;13748;52.240;6.002;2022-08-27T14:12:32;25.80;97.70
25951;DHT22;13748;52.240;6.002;2022-08-27T14:15:28;25.90;98.00
25951;DHT22;13748;52.240;6.002;2022-08-27T14:17:56;25.80;98.10
25951;DHT22;13748;52.240;6.002;2022-08-27T14:20:23;25.70;98.30
25951;DHT22;13748;52.240;6.002;2022-08-27T14:22:51;25.80;98.20
25951;DHT22;13748;52.240;6.002;2022-08-27T14:25:18;25.90;98.00
25951;DHT22;13748;52.240;6.002;2022-08-27T14:27:53;25.90;97.70
25951;DHT22;13748;52.240;6.002;2022-08-27T14:30:23;25.90;97.70
25951;DHT22;13748;52.240;6.002;2022-08-27T14:32:55;26.00;98.10
25951;DHT22;13748;52.240;6.002;2022-08-27T14:35:24;26.20;97.70
25951;DHT22;13748;52.240;6.002;2022-08-27T14:37:52;26.00;97.60
25951;DHT22;13748;52.240;6.002;2022-08-27T14:40:19;26.00;97.20
25951;DHT22;13748;52.240;6.002;2022-08-27T14:42:46;25.90;97.10
25951;DHT22;13748;52.240;6.002;2022-08-27T14:45:13;26.00;96.80
25951;DHT22;13748;52.240;6.002;2022-08-27T14:47:41;26.00;96.40
25951;DHT22;13748;52.240;6.002;2022-08-27T14:50:11;25.90;96.40
25951;DHT22;13748;52.240;6.002;2022-08-27T14:52:38;25.90;96.10
25951;DHT22;13748;52.240;6.002;2022-08-27T14:55:07;25.80;95.80
25951;DHT22;13748;52.240;6.002;2022-08-27T14:57:36;25.80;96.20
25951;DHT22;13748;52.240;6.002;2022-08-27T15:00:05;25.90;96.30
25951;DHT22;13748;52.240;6.002;2022-08-27T15:02:33;25.90;96.00
25951;DHT22;13748;52.240;6.002;2022-08-27T15:05:00;25.80;96.10
25951;DHT22;13748;52.240;6.002;2022-08-27T15:07:37;25.70;96.10
25951;DHT22;13748;52.240;6.002;2022-08-27T15:10:07;25.60;96.40
25951;DHT22;13748;52.240;6.002;2022-08-27T15:12:35;25.40;96.50
25951;DHT22;13748;52.240;6.002;2022-08-27T15:15:03;25.40;96.60
25951;DHT22;13748;52.240;6.002;2022-08-27T15:17:31;25.30;96.70
25951;DHT22;13748;52.240;6.002;2022-08-27T15:20:05;25.40;96.70
25951;DHT22;13748;52.240;6.002;2022-08-27T15:22:35;25.10;96.70
25951;DHT22;13748;52.240;6.002;2022-08-27T15:25:07;25.10;96.80
25951;DHT22;13748;52.240;6.002;2022-08-27T15:27:35;25.10;97.20
25951;DHT22;13748;52.240;6.002;2022-08-27T15:30:06;25.10;97.10
25951;DHT22;13748;52.240;6.002;2022-08-27T15:32:46;25.10;97.00
25951;DHT22;13748;52.240;6.002;2022-08-27T15:35:19;25.10;96.70
25951;DHT22;13748;52.240;6.002;2022-08-27T15:37:46;25.00;96.90
25951;DHT22;13748;52.240;6.002;2022-08-27T15:40:14;25.10;96.90
25951;DHT22;13748;52.240;6.002;2022-08-27T15:42:42;25.10;97.00
25951;DHT22;13748;52.240;6.002;2022-08-27T15:45:14;25.10;96.60
25951;DHT22;13748;52.240;6.002;2022-08-27T15:47:41;25.10;96.60
25951;DHT22;13748;52.240;6.002;2022-08-27T15:50:08;25.10;96.50
25951;DHT22;13748;52.240;6.002;2022-08-27T15:52:37;25.00;96.10
25951;DHT22;13748;52.240;6.002;2022-08-27T15:55:19;24.90;96.10
25951;DHT22;13748;52.240;6.002;2022-08-27T15:57:49;24.80;96.10
25951;DHT22;13748;52.240;6.002;2022-08-27T16:00:16;24.70;96.20
25951;DHT22;13748;52.240;6.002;2022-08-27T16:02:44;24.70;96.60
25951;DHT22;13748;52.240;6.002;2022-08-27T16:05:12;24.50;96.60
25951;DHT22;13748;52.240;6.002;2022-08-27T16:07:40;24.60;96.80
25951;DHT22;13748;52.240;6.002;2022-08-27T16:10:08;24.50;96.80
25951;DHT22;13748;52.240;6.002;2022-08-27T16:12:35;24.50;96.90
25951;DHT22;13748;52.240;6.002;2022-08-27T16:15:03;24.40;97.00
25951;DHT22;13748;52.240;6.002;2022-08-27T16:17:31;24.40;97.20
25951;DHT22;13748;52.240;6.002;2022-08-27T16:19:58;24.40;97.30
25951;DHT22;13748;52.240;6.002;2022-08-27T16:22:25;24.40;97.30
25951;DHT22;13748;52.240;6.002;2022-08-27T16:24:52;24.30;97.10
25951;DHT22;13748;52.240;6.002;2022-08-27T16:27:19;24.40;97.10
25951;DHT22;13748;52.240;6.002;2022-08-27T16:29:46;24.30;96.90
25951;DHT22;13748;52.240;6.002;2022-08-27T16:32:16;24.40;97.10
25951;DHT22;13748;52.240;6.002;2022-08-27T16:34:45;24.30;97.00
25951;DHT22;13748;52.240;6.002;2022-08-27T16:37:20;24.30;97.00
25951;DHT22;13748;52.240;6.002;2022-08-27T16:39:47;24.20;97.00
25951;DHT22;13748;52.240;6.002;2022-08-27T16:42:14;24.20;97.20
25951;DHT22;13748;52.240;6.002;2022-08-27T16:44:41;24.20;97.50
25951;DHT22;13748;52.240;6.002;2022-08-27T16:47:08;24.20;97.50
25951;DHT22;13748;52.240;6.002;2022-08-27T16:49:35;24.20;97.50
25951;DHT22;13748;52.240;6.002;2022-08-27T16:52:20;24.30;97.60
25951;DHT22;13748;52.240;6.002;2022-08-27T16:54:50;24.10;97.80
25951;DHT22;13748;52.240;6.002;2022-08-27T16:57:17;24.10;98.00
25951;DHT22;13748;52.240;6.002;2022-08-27T16:59:43;24.00;98.70
25951;DHT22;13748;52.240;6.002;2022-08-27T17:02:18;23.90;98.70
25951;DHT22;13748;52.240;6.002;2022-08-27T17:04:51;23.80;98.90
25951;DHT22;13748;52.240;6.002;2022-08-27T17:07:26;23.60;99.20
25951;DHT22;13748;52.240;6.002;2022-08-27T17:09:53;23.40;99.40
25951;DHT22;13748;52.240;6.002;2022-08-27T17:12:23;23.40;99.50
25951;DHT22;13748;52.240;6.002;2022-08-27T17:14:50;23.30;99.70
25951;DHT22;13748;52.240;6.002;2022-08-27T17:17:18;23.10;99.90
25951;DHT22;13748;52.240;6.002;2022-08-27T17:19:46;23.00;99.90
25951;DHT22;13748;52.240;6.002;2022-08-27T17:22:13;23.00;99.90
25951;DHT22;13748;52.240;6.002;2022-08-27T17:24:40;22.80;99.90
25951;DHT22;13748;52.240;6.002;2022-08-27T17:27:07;22.80;99.90
25951;DHT22;13748;52.240;6.002;2022-08-27T17:29:34;22.60;99.90